Time;durP1;ratioP1;P1;durP2;ratioP2;P2;SDS_P1;SDS_P2;PMS_P1;PMS_P2;Temp;Humidity;BMP_temperature;BMP_pressure;BME280_temperature;BME280_humidity;BME280_pressure;Samples;Min_cycle;Max_cycle;Signal;HPM_P1;HPM_P2
2021/11/08 00:01:47;;;;;;;8.77;2.90;;;7.00;99.90;;;;;;5111396;28;20032;-92
2021/11/08 00:04:13;;;;;;;10.77;2.90;;;6.90;99.90;;;;;;5111284;28;20047;-91
2021/11/08 00:06:39;;;;;;;7.72;2.65;;;6.80;99.90;;;;;;5111277;28;20046;-93
2021/11/08 00:09:06;;;;;;;7.15;2.40;;;6.80;99.90;;;;;;5111174;28;20020;-92
2021/11/08 00:11:40;;;;;;;9.32;2.88;;;6.70;99.90;;;;;;5111505;28;20157;-92
2021/11/08 00:14:09;;;;;;;5.88;2.38;;;6.70;99.90;;;;;;5111463;28;20059;-92
2021/11/08 00:16:56;;;;;;;5.65;2.28;;;6.60;99.90;;;;;;5111248;28;20023;-93
2021/11/08 00:19:49;;;;;;;11.13;3.15;;;6.60;99.90;;;;;;5111524;28;20023;-90
2021/11/08 00:22:15;;;;;;;6.53;2.70;;;6.50;99.90;;;;;;5109994;28;20031;-92
2021/11/08 00:24:45;;;;;;;7.63;2.58;;;6.50;99.90;;;;;;5116771;28;20024;-92
2021/11/08 00:27:11;;;;;;;7.65;2.78;;;6.40;99.90;;;;;;5109559;28;20050;-93
2021/11/08 00:29:37;;;;;;;11.02;2.85;;;6.40;99.90;;;;;;5109270;28;20483;-92
2021/11/08 00:32:09;;;;;;;7.97;2.70;;;6.30;99.90;;;;;;5109370;28;20023;-91
2021/11/08 00:34:40;;;;;;;7.05;2.30;;;6.20;99.90;;;;;;5090489;28;20471;-93
2021/11/08 00:37:06;;;;;;;7.43;2.70;;;6.20;99.90;;;;;;5097037;28;20892;-91
2021/11/08 00:39:34;;;;;;;8.45;2.72;;;6.10;99.90;;;;;;5109467;28;20040;-91
2021/11/08 00:42:04;;;;;;;7.88;2.70;;;6.20;99.90;;;;;;5110087;28;20036;-91
2021/11/08 00:44:30;;;;;;;10.82;2.70;;;6.10;99.90;;;;;;5109780;28;20026;-92
2021/11/08 00:46:56;;;;;;;8.52;3.05;;;6.20;99.90;;;;;;5115250;28;20027;-92
2021/11/08 00:49:24;;;;;;;6.68;2.83;;;6.30;99.90;;;;;;5113244;28;20024;-93
2021/11/08 00:51:50;;;;;;;6.47;2.53;;;6.30;99.90;;;;;;5112893;28;20038;-91
2021/11/08 00:54:16;;;;;;;6.93;2.40;;;6.40;99.90;;;;;;5112812;28;20015;-92
2021/11/08 00:56:47;;;;;;;7.63;2.40;;;6.40;99.90;;;;;;5114901;28;20039;-92
2021/11/08 00:59:15;;;;;;;10.55;2.67;;;6.40;99.90;;;;;;5097052;28;20039;-91
2021/11/08 01:01:45;;;;;;;9.88;2.88;;;6.40;99.90;;;;;;5114386;28;20028;-92
2021/11/08 01:04:16;;;;;;;7.70;2.72;;;6.30;99.90;;;;;;5112450;28;20027;-92
2021/11/08 01:06:42;;;;;;;7.95;2.70;;;6.30;99.90;;;;;;5112205;28;20458;-92
2021/11/08 01:09:08;;;;;;;10.60;3.78;;;6.20;99.90;;;;;;5110578;28;20081;-92
2021/11/08 01:11:35;;;;;;;6.75;2.42;;;6.20;99.90;;;;;;5110564;28;20023;-92
2021/11/08 01:14:01;;;;;;;9.07;2.60;;;6.10;99.90;;;;;;5111541;28;20030;-92
2021/11/08 01:16:27;;;;;;;8.77;3.10;;;6.00;99.90;;;;;;5112267;28;20078;-94
2021/11/08 01:18:54;;;;;;;7.05;2.28;;;6.00;99.90;;;;;;5112633;28;20030;-92
2021/11/08 01:21:21;;;;;;;7.93;2.47;;;5.90;99.90;;;;;;5110988;28;20027;-92
2021/11/08 01:23:47;;;;;;;8.07;2.63;;;5.90;99.90;;;;;;5108011;28;20024;-92
2021/11/08 01:26:15;;;;;;;6.70;2.38;;;5.80;99.90;;;;;;5094491;28;20053;-92
2021/11/08 01:28:50;;;;;;;8.63;2.80;;;5.80;99.90;;;;;;5111028;28;20046;-93
2021/11/08 01:31:28;;;;;;;7.63;2.40;;;5.80;99.90;;;;;;5111666;28;20060;-92
2021/11/08 01:33:55;;;;;;;8.38;2.60;;;5.70;99.90;;;;;;5112504;28;20365;-92
2021/11/08 01:36:50;;;;;;;8.20;2.55;;;5.70;99.90;;;;;;5110838;28;20086;-93
2021/11/08 01:39:14;;;;;;;6.30;2.45;;;5.70;99.90;;;;;;5110254;28;20055;-92
2021/11/08 01:41:41;;;;;;;6.57;2.43;;;5.60;99.90;;;;;;5127769;27;20039;-93
2021/11/08 01:44:07;;;;;;;7.65;2.40;;;5.60;99.90;;;;;;5093928;28;20028;-93
2021/11/08 01:46:33;;;;;;;7.57;2.35;;;5.50;99.90;;;;;;5093824;28;20023;-94
2021/11/08 01:48:59;;;;;;;6.75;3.40;;;5.50;99.90;;;;;;5110227;28;20055;-92
2021/11/08 01:51:25;;;;;;;8.23;2.92;;;5.50;99.90;;;;;;5110246;28;20542;-93
2021/11/08 01:53:51;;;;;;;11.63;3.53;;;5.40;99.90;;;;;;5109877;28;20417;-93
2021/11/08 01:56:18;;;;;;;10.05;3.20;;;5.30;99.90;;;;;;5110043;28;20027;-94
2021/11/08 01:58:44;;;;;;;6.75;2.50;;;5.30;99.90;;;;;;5111157;28;20417;-92
2021/11/08 02:01:10;;;;;;;9.35;2.47;;;5.20;99.90;;;;;;5110313;28;20693;-93
2021/11/08 02:03:39;;;;;;;7.68;2.65;;;5.20;99.90;;;;;;5110357;28;20020;-92
2021/11/08 02:06:05;;;;;;;7.75;2.97;;;5.20;99.90;;;;;;5099020;28;20043;-92
2021/11/08 02:08:37;;;;;;;8.98;3.00;;;5.20;99.90;;;;;;5110144;28;20104;-94
2021/11/08 02:11:03;;;;;;;9.70;3.00;;;5.20;99.90;;;;;;5109142;28;20036;-92
2021/11/08 02:13:30;;;;;;;8.68;2.85;;;5.20;99.90;;;;;;5110128;28;20027;-93
2021/11/08 02:15:55;;;;;;;8.43;3.05;;;5.20;99.90;;;;;;5093823;28;20032;-94
2021/11/08 02:18:24;;;;;;;7.75;3.17;;;5.20;99.90;;;;;;5110850;28;20016;-92
2021/11/08 02:20:53;;;;;;;12.32;3.60;;;5.20;99.90;;;;;;5118017;27;20103;-92
2021/11/08 02:23:20;;;;;;;9.30;3.13;;;5.20;99.90;;;;;;5118671;27;20091;-92
2021/11/08 02:25:49;;;;;;;6.30;3.00;;;5.20;99.90;;;;;;5115336;28;20026;-92
2021/11/08 02:28:17;;;;;;;11.20;3.33;;;5.10;99.90;;;;;;5114645;28;20106;-92
2021/11/08 02:30:46;;;;;;;6.20;2.67;;;5.10;99.90;;;;;;5114561;28;20031;-91
2021/11/08 02:33:16;;;;;;;8.43;3.20;;;5.10;99.90;;;;;;5114304;28;20024;-91
2021/11/08 02:35:43;;;;;;;7.70;2.67;;;5.10;99.90;;;;;;5114124;28;20027;-92
2021/11/08 02:38:31;;;;;;;7.97;3.30;;;5.10;99.90;;;;;;5113897;28;20076;-93
2021/11/08 02:40:59;;;;;;;6.03;2.40;;;5.00;99.90;;;;;;5114692;28;20077;-92
2021/11/08 02:43:27;;;;;;;6.55;2.50;;;5.00;99.90;;;;;;5114292;28;20066;-92
2021/11/08 02:46:19;;;;;;;8.95;3.03;;;5.00;99.90;;;;;;5114282;28;20024;-92
2021/11/08 02:48:45;;;;;;;9.38;3.53;;;4.90;99.90;;;;;;5114681;28;20061;-92
2021/11/08 02:51:24;;;;;;;7.60;3.00;;;4.90;99.90;;;;;;5113670;28;20123;-92
2021/11/08 02:53:56;;;;;;;8.75;3.00;;;4.90;99.90;;;;;;5094317;28;20020;-92
2021/11/08 02:56:22;;;;;;;11.02;3.58;;;4.90;99.90;;;;;;5103315;28;20016;-91
2021/11/08 02:58:48;;;;;;;8.90;3.45;;;4.90;99.90;;;;;;5113756;28;20489;-92
2021/11/08 03:01:19;;;;;;;6.93;3.22;;;4.90;99.90;;;;;;5113123;28;20111;-93
2021/11/08 03:04:13;;;;;;;8.77;3.22;;;4.90;99.90;;;;;;5113910;28;20495;-92
2021/11/08 03:06:33;;;;;;;5.95;3.15;;;4.90;99.90;;;;;;5114367;28;20028;-92
2021/11/08 03:09:40;;;;;;;8.57;3.10;;;4.90;99.90;;;;;;5130921;27;20026;-93
2021/11/08 03:12:13;;;;;;;6.45;2.50;;;4.90;99.90;;;;;;5116861;27;20019;-93
2021/11/08 03:17:40;;;;;;;6.97;2.47;;;4.90;99.90;;;;;;5104189;28;20035;-93
2021/11/08 03:20:10;;;;;;;5.53;2.63;;;4.90;99.90;;;;;;5113552;28;20028;-92
2021/11/08 03:22:36;;;;;;;6.78;2.55;;;4.80;99.90;;;;;;5113042;28;20042;-91
2021/11/08 03:25:14;;;;;;;5.45;2.80;;;4.80;99.90;;;;;;5113734;28;20027;-92
2021/11/08 03:30:15;;;;;;;7.70;2.58;;;4.80;99.90;;;;;;5114804;28;20023;-92
2021/11/08 03:32:45;;;;;;;7.05;2.85;;;4.70;99.90;;;;;;5113615;28;20024;-92
2021/11/08 03:35:12;;;;;;;5.53;2.55;;;4.70;99.90;;;;;;5113703;28;20030;-92
2021/11/08 03:37:41;;;;;;;8.10;2.45;;;4.70;99.90;;;;;;5113128;28;20047;-91
2021/11/08 03:40:13;;;;;;;5.80;2.33;;;4.70;99.90;;;;;;5113918;28;20020;-91
2021/11/08 03:42:40;;;;;;;6.90;3.38;;;4.60;99.90;;;;;;5096705;28;20031;-91
2021/11/08 03:45:07;;;;;;;5.68;2.30;;;4.60;99.90;;;;;;5113825;28;20019;-92
2021/11/08 03:47:36;;;;;;;5.43;2.53;;;4.50;99.90;;;;;;5115080;28;20379;-91
2021/11/08 03:50:03;;;;;;;6.93;3.05;;;4.50;99.90;;;;;;5096632;28;20390;-91
2021/11/08 03:52:32;;;;;;;7.35;2.58;;;4.50;99.90;;;;;;5113106;28;20039;-91
2021/11/08 03:54:58;;;;;;;8.27;2.80;;;4.50;99.90;;;;;;5113521;28;20126;-93
2021/11/08 03:57:28;;;;;;;8.57;2.67;;;4.50;99.90;;;;;;5114128;28;20028;-92
2021/11/08 03:59:55;;;;;;;6.75;2.80;;;4.50;99.90;;;;;;5115224;28;20016;-91
2021/11/08 04:02:21;;;;;;;5.32;2.55;;;4.50;99.90;;;;;;5112937;28;20134;-92
2021/11/08 04:04:48;;;;;;;5.75;2.55;;;4.50;99.90;;;;;;5113348;28;20058;-92
2021/11/08 04:07:15;;;;;;;5.30;2.35;;;4.50;99.90;;;;;;5114472;28;20031;-92
2021/11/08 04:09:41;;;;;;;7.40;2.80;;;4.50;99.90;;;;;;5114239;28;20034;-92
2021/11/08 04:12:08;;;;;;;7.72;3.13;;;4.50;99.90;;;;;;5113602;28;20057;-92
2021/11/08 04:14:36;;;;;;;6.22;2.42;;;4.50;99.90;;;;;;5113231;28;20468;-92
2021/11/08 04:17:04;;;;;;;4.57;2.70;;;4.50;99.90;;;;;;5113348;28;20486;-92
2021/11/08 04:19:32;;;;;;;7.53;2.42;;;4.50;99.90;;;;;;5115508;28;20094;-92
2021/11/08 04:22:01;;;;;;;5.80;2.42;;;4.50;99.90;;;;;;5117372;28;20026;-91
2021/11/08 04:24:28;;;;;;;5.57;2.72;;;4.40;99.90;;;;;;5100674;28;20035;-92
2021/11/08 04:26:55;;;;;;;6.13;2.80;;;4.40;99.90;;;;;;5100298;28;20026;-91
2021/11/08 04:29:22;;;;;;;5.03;2.42;;;4.40;99.90;;;;;;5117011;28;20482;-91
2021/11/08 04:31:48;;;;;;;6.97;2.95;;;4.40;99.90;;;;;;5100588;28;20020;-92
2021/11/08 04:46:47;;;;;;;4.32;2.42;;;4.30;99.90;;;;;;5118074;28;20032;-92
2021/11/08 04:49:26;;;;;;;7.18;2.67;;;4.30;99.90;;;;;;5117317;28;20074;-91
2021/11/08 04:52:05;;;;;;;5.20;2.20;;;4.30;99.90;;;;;;5116745;28;20016;-92
2021/11/08 04:57:31;;;;;;;5.60;3.35;;;4.30;99.90;;;;;;5117892;28;20040;-93
2021/11/08 05:32:18;;;;;;;8.18;3.40;;;4.70;99.90;;;;;;5116853;28;20034;-92
2021/11/08 05:34:45;;;;;;;5.72;2.40;;;4.80;99.90;;;;;;5114839;28;20112;-92
2021/11/08 05:37:11;;;;;;;7.68;2.97;;;4.70;99.90;;;;;;5115593;28;20048;-90
2021/11/08 05:39:43;;;;;;;6.70;2.33;;;4.70;99.90;;;;;;5114859;28;20048;-93
2021/11/08 05:42:09;;;;;;;7.63;3.00;;;4.70;99.90;;;;;;5117257;28;20064;-94
2021/11/08 05:44:39;;;;;;;7.03;2.60;;;4.60;99.90;;;;;;5117114;28;20023;-92
2021/11/08 05:47:06;;;;;;;6.65;3.15;;;4.50;99.90;;;;;;5116003;28;20079;-92
2021/11/08 05:49:32;;;;;;;6.43;2.60;;;4.50;99.90;;;;;;5115686;28;20137;-92
2021/11/08 05:51:59;;;;;;;6.25;2.78;;;4.40;99.90;;;;;;5115584;28;20023;-92
2021/11/08 05:54:24;;;;;;;7.55;2.75;;;4.40;99.90;;;;;;5114486;28;20032;-92
2021/11/08 06:50:38;;;;;;;10.15;3.83;;;5.30;99.90;;;;;;5115015;28;20478;-92
2021/11/08 06:53:07;;;;;;;10.63;3.90;;;5.30;99.90;;;;;;5114563;28;20420;-92
2021/11/08 06:55:35;;;;;;;12.50;4.03;;;5.40;99.90;;;;;;5113405;28;20024;-92
2021/11/08 06:58:11;;;;;;;9.73;4.15;;;5.30;99.90;;;;;;5112539;28;20031;-92
2021/11/08 07:00:37;;;;;;;12.48;4.05;;;5.30;99.90;;;;;;5114107;28;20035;-92
2021/11/08 07:05:51;;;;;;;9.75;3.80;;;5.20;99.90;;;;;;5113228;28;20031;-91
2021/11/08 07:08:17;;;;;;;8.13;3.53;;;5.30;99.90;;;;;;5095782;28;20129;-92
2021/11/08 07:10:45;;;;;;;9.07;3.55;;;5.30;99.90;;;;;;5112556;28;20023;-91
2021/11/08 07:13:12;;;;;;;9.27;4.28;;;5.40;99.90;;;;;;5113670;28;20028;-91
2021/11/08 07:15:42;;;;;;;11.70;4.70;;;5.50;99.90;;;;;;5096536;28;20451;-91
2021/11/08 07:18:08;;;;;;;12.93;4.38;;;5.60;99.90;;;;;;5113960;28;20453;-91
2021/11/08 07:20:35;;;;;;;10.27;4.43;;;5.70;99.90;;;;;;5113901;28;20034;-92
2021/11/08 07:23:08;;;;;;;10.68;4.53;;;5.70;99.90;;;;;;5098377;28;20069;-90
2021/11/08 07:25:33;;;;;;;11.45;4.45;;;5.80;99.90;;;;;;5116870;28;20467;-91
2021/11/08 07:28:00;;;;;;;10.68;4.28;;;5.90;99.90;;;;;;5075831;28;20035;-92
2021/11/08 07:30:27;;;;;;;12.98;5.20;;;6.00;99.90;;;;;;5101738;28;20028;-90
2021/11/08 07:32:53;;;;;;;15.27;5.85;;;6.00;99.90;;;;;;5108563;28;20028;-94
2021/11/08 07:35:22;;;;;;;15.93;5.13;;;6.10;99.90;;;;;;5115363;27;20375;-93
2021/11/08 07:37:52;;;;;;;16.58;5.70;;;6.20;99.90;;;;;;5108357;28;20066;-92
2021/11/08 07:40:31;;;;;;;16.95;6.03;;;6.30;99.90;;;;;;5110794;28;20063;-93
2021/11/08 07:43:02;;;;;;;13.07;5.30;;;6.30;99.90;;;;;;5109670;28;20159;-93
2021/11/08 07:45:28;;;;;;;17.75;5.82;;;6.40;99.90;;;;;;5128273;28;20117;-92
2021/11/08 07:48:03;;;;;;;10.93;5.70;;;6.40;99.90;;;;;;5124049;28;20068;-91
2021/11/08 07:50:30;;;;;;;13.55;5.38;;;6.40;99.90;;;;;;5113382;28;20019;-92
2021/11/08 07:52:56;;;;;;;12.90;5.93;;;6.50;99.90;;;;;;5096462;28;20034;-93
2021/11/08 07:55:23;;;;;;;18.73;5.45;;;6.50;99.90;;;;;;5117204;27;20023;-92
2021/11/08 07:58:01;;;;;;;13.30;5.70;;;6.60;99.90;;;;;;5118563;28;20118;-92
2021/11/08 08:00:28;;;;;;;15.13;5.50;;;6.60;99.90;;;;;;5118938;27;20023;-92
2021/11/08 08:02:59;;;;;;;14.57;5.75;;;6.60;99.90;;;;;;5118960;27;20023;-92
2021/11/08 08:05:26;;;;;;;16.83;5.55;;;6.70;99.90;;;;;;5116588;28;20184;-93
2021/11/08 08:07:57;;;;;;;15.82;6.13;;;6.70;99.90;;;;;;5118304;28;20174;-93
2021/11/08 08:10:25;;;;;;;12.95;5.28;;;6.80;99.90;;;;;;5117439;28;20030;-93
2021/11/08 08:12:51;;;;;;;13.93;6.22;;;6.80;99.90;;;;;;5099981;28;20035;-94
2021/11/08 08:15:21;;;;;;;14.02;5.85;;;6.90;99.90;;;;;;5116564;28;20076;-93
2021/11/08 08:17:48;;;;;;;17.33;6.22;;;6.90;99.90;;;;;;5117039;28;20126;-92
2021/11/08 08:20:18;;;;;;;14.48;5.82;;;7.00;99.90;;;;;;5117461;28;20023;-92
2021/11/08 08:22:48;;;;;;;15.02;6.63;;;7.00;99.90;;;;;;5118127;28;20027;-92
2021/11/08 08:25:15;;;;;;;18.38;7.10;;;7.10;99.90;;;;;;5108506;28;20016;-91
2021/11/08 08:27:41;;;;;;;18.13;7.35;;;7.10;99.90;;;;;;5116946;28;20031;-92
2021/11/08 08:30:10;;;;;;;15.07;6.97;;;7.20;99.90;;;;;;5116655;28;20450;-94
2021/11/08 08:32:39;;;;;;;17.35;7.35;;;7.20;99.90;;;;;;5100264;28;20024;-92
2021/11/08 08:35:09;;;;;;;16.98;7.65;;;7.30;99.90;;;;;;5100127;28;20030;-92
2021/11/08 08:37:38;;;;;;;17.80;7.57;;;7.30;99.90;;;;;;5116910;28;20536;-92
2021/11/08 08:40:07;;;;;;;21.23;7.53;;;7.40;99.90;;;;;;5114950;28;20059;-92
2021/11/08 08:42:40;;;;;;;15.20;7.03;;;7.40;99.90;;;;;;5118453;27;20459;-92
2021/11/08 08:45:09;;;;;;;16.65;6.82;;;7.50;99.90;;;;;;5116823;28;20382;-94
2021/11/08 08:47:39;;;;;;;15.60;6.88;;;7.50;99.90;;;;;;5118317;28;20127;-93
2021/11/08 08:50:07;;;;;;;16.90;6.63;;;7.60;99.90;;;;;;5116493;28;20024;-93
2021/11/08 08:52:34;;;;;;;14.73;6.88;;;7.60;99.90;;;;;;5115967;28;20490;-92
2021/11/08 08:55:00;;;;;;;17.48;7.30;;;7.60;99.90;;;;;;5125573;27;20382;-92
2021/11/08 08:57:26;;;;;;;17.40;6.72;;;7.70;99.90;;;;;;5136947;27;20035;-91
2021/11/08 08:59:52;;;;;;;15.27;5.35;;;7.70;99.90;;;;;;5136317;27;20024;-92
2021/11/08 09:02:18;;;;;;;18.77;6.80;;;7.70;99.90;;;;;;5124453;27;20511;-92
2021/11/08 09:04:51;;;;;;;16.88;6.40;;;7.70;99.90;;;;;;5114228;28;20032;-92
2021/11/08 09:07:17;;;;;;;13.43;6.68;;;7.80;99.90;;;;;;5119771;28;20027;-92
2021/11/08 09:09:43;;;;;;;12.27;6.40;;;7.90;99.90;;;;;;5119768;28;20471;-92
2021/11/08 09:12:15;;;;;;;16.88;7.32;;;8.00;99.90;;;;;;5116573;28;20455;-91
2021/11/08 09:14:42;;;;;;;19.40;7.63;;;8.00;99.90;;;;;;5105216;27;20034;-92
2021/11/08 09:17:09;;;;;;;18.58;7.45;;;8.10;99.90;;;;;;5116757;27;20027;-92
2021/11/08 09:19:36;;;;;;;20.88;8.40;;;8.20;99.90;;;;;;5116169;28;20019;-93
2021/11/08 09:22:11;;;;;;;16.38;7.47;;;8.40;99.90;;;;;;5115363;28;20020;-91
2021/11/08 09:24:41;;;;;;;21.90;7.97;;;8.40;99.90;;;;;;5115997;28;20020;-93
2021/11/08 09:27:11;;;;;;;16.17;6.80;;;8.50;99.90;;;;;;5115600;28;20080;-91
2021/11/08 09:29:44;;;;;;;21.17;8.10;;;8.50;99.90;;;;;;5114933;28;20038;-92
2021/11/08 09:32:20;;;;;;;20.38;7.07;;;8.70;99.90;;;;;;5110379;28;20118;-91
2021/11/08 09:34:57;;;;;;;15.18;7.45;;;8.90;99.90;;;;;;5122172;27;20042;-92
2021/11/08 09:37:31;;;;;;;19.55;8.18;;;9.10;99.90;;;;;;5134281;27;20023;-92
2021/11/08 09:39:58;;;;;;;18.92;7.70;;;9.10;99.90;;;;;;5133595;27;20482;-92
2021/11/08 09:42:26;;;;;;;14.93;6.32;;;9.10;99.90;;;;;;5114861;28;20459;-91
2021/11/08 09:45:02;;;;;;;20.65;7.10;;;9.10;99.90;;;;;;5118463;27;20462;-90
2021/11/08 09:47:29;;;;;;;19.60;7.32;;;9.10;99.90;;;;;;5115183;27;20055;-91
2021/11/08 09:50:02;;;;;;;23.77;8.70;;;9.20;99.90;;;;;;5119806;27;20022;-91
2021/11/08 09:52:37;;;;;;;14.45;6.82;;;9.20;99.90;;;;;;5120117;27;20124;-91
2021/11/08 09:55:07;;;;;;;14.15;6.07;;;9.20;99.90;;;;;;5118450;27;20026;-91
2021/11/08 09:57:37;;;;;;;17.55;6.88;;;9.20;99.90;;;;;;5114034;28;20038;-92
2021/11/08 10:00:43;;;;;;;17.92;7.40;;;9.30;99.90;;;;;;5097178;28;20046;-91
2021/11/08 10:03:37;;;;;;;20.73;7.07;;;9.30;99.90;;;;;;5113269;28;20063;-90
2021/11/08 10:06:11;;;;;;;18.77;7.47;;;9.40;99.90;;;;;;5126733;27;20034;-92
2021/11/08 10:08:42;;;;;;;15.02;6.22;;;9.40;99.90;;;;;;5118666;27;20043;-93
2021/11/08 10:11:19;;;;;;;14.18;6.38;;;9.50;99.90;;;;;;5115713;28;20015;-91
2021/11/08 10:13:49;;;;;;;17.48;6.38;;;9.60;99.90;;;;;;5113951;28;20027;-93
2021/11/08 10:16:36;;;;;;;17.20;5.78;;;9.70;99.90;;;;;;5131499;27;20033;-92
2021/11/08 10:19:07;;;;;;;17.05;5.80;;;9.80;99.90;;;;;;5126838;27;20032;-91
2021/11/08 10:21:50;;;;;;;18.73;6.05;;;9.80;99.90;;;;;;5114055;28;20034;-91
2021/11/08 10:24:29;;;;;;;20.70;7.35;;;9.90;99.90;;;;;;5113903;28;20039;-92
2021/11/08 10:27:03;;;;;;;15.75;6.43;;;9.90;99.90;;;;;;5092577;28;20036;-91
2021/11/08 10:29:35;;;;;;;17.73;6.70;;;10.00;99.90;;;;;;5100529;27;20027;-94
2021/11/08 10:32:09;;;;;;;16.70;6.05;;;10.00;99.90;;;;;;5127011;27;20042;-93
2021/11/08 10:34:56;;;;;;;19.45;6.13;;;10.10;99.90;;;;;;5116590;27;20073;-93
2021/11/08 10:37:28;;;;;;;20.70;6.47;;;10.20;99.90;;;;;;5116936;27;20047;-92
2021/11/08 10:40:14;;;;;;;12.73;5.18;;;10.30;99.90;;;;;;5114392;28;20138;-93
2021/11/08 10:42:43;;;;;;;15.88;5.22;;;10.40;99.90;;;;;;5096800;28;20042;-93
2021/11/08 10:45:23;;;;;;;13.43;5.80;;;10.50;99.90;;;;;;5115701;27;20024;-94
2021/11/08 10:48:04;;;;;;;16.38;5.30;;;10.70;99.90;;;;;;5113723;28;20489;-93
2021/11/08 10:50:48;;;;;;;14.43;5.00;;;10.80;99.90;;;;;;5131613;27;20027;-93
2021/11/08 10:53:31;;;;;;;;;;;11.20;99.90;;;;;;5117627;27;20031;-95
2021/11/08 10:56:09;;;;;;;13.55;4.78;;;11.40;99.90;;;;;;5117963;27;19910;-91
2021/11/08 10:58:42;;;;;;;10.95;4.03;;;11.60;99.90;;;;;;5110483;28;20039;-91
2021/11/08 11:01:20;;;;;;;12.82;4.72;;;11.70;99.90;;;;;;5111026;28;20031;-92
2021/11/08 11:03:55;;;;;;;11.68;4.00;;;11.70;99.90;;;;;;5110325;28;20039;-91
2021/11/08 11:06:44;;;;;;;16.48;5.53;;;11.70;99.90;;;;;;5117931;27;20096;-91
2021/11/08 11:09:29;;;;;;;11.07;3.65;;;11.90;99.90;;;;;;5124182;27;20125;-92
2021/11/08 11:12:20;;;;;;;13.02;3.95;;;12.30;99.90;;;;;;5091778;28;20097;-92
2021/11/08 11:14:58;;;;;;;15.05;5.13;;;12.50;99.90;;;;;;5102661;28;20378;-90
2021/11/08 11:17:33;;;;;;;13.70;4.35;;;12.50;99.90;;;;;;5111878;28;20051;-90
2021/11/08 11:20:21;;;;;;;15.93;4.85;;;12.50;99.90;;;;;;5128604;27;20020;-90
2021/11/08 11:23:11;;;;;;;15.13;4.75;;;12.40;99.90;;;;;;5111836;28;20066;-90
2021/11/08 11:25:43;;;;;;;18.20;5.97;;;12.40;99.90;;;;;;5111848;28;20019;-90
2021/11/08 11:28:21;;;;;;;15.13;5.00;;;12.40;99.90;;;;;;5113075;28;20106;-88
2021/11/08 11:30:48;;;;;;;18.67;5.45;;;12.80;99.90;;;;;;5110659;28;20019;-90
2021/11/08 11:33:18;;;;;;;15.32;4.85;;;13.70;99.90;;;;;;5111481;28;20084;-90
2021/11/08 11:35:52;;;;;;;17.33;5.18;;;14.30;99.90;;;;;;5111633;28;20024;-90
2021/11/08 11:38:32;;;;;;;11.40;4.53;;;14.80;99.90;;;;;;5112157;28;20024;-90
2021/11/08 11:41:09;;;;;;;12.32;3.97;;;15.30;99.90;;;;;;5112224;28;20048;-90
2021/11/08 11:43:52;;;;;;;12.52;4.53;;;15.70;99.90;;;;;;5111379;28;20039;-90
2021/11/08 11:46:40;;;;;;;15.30;4.40;;;16.50;99.90;;;;;;5111974;28;20090;-91
2021/11/08 11:49:12;;;;;;;12.50;3.78;;;17.30;99.90;;;;;;5113609;28;20035;-90
2021/11/08 11:52:05;;;;;;;15.35;3.88;;;17.60;99.90;;;;;;5113092;28;20031;-90
2021/11/08 11:54:34;;;;;;;13.40;3.97;;;18.10;99.90;;;;;;5091257;28;20043;-91
2021/11/08 11:57:04;;;;;;;14.90;4.45;;;18.60;99.90;;;;;;5118561;28;20076;-90
2021/11/08 11:59:40;;;;;;;12.60;4.65;;;19.20;99.90;;;;;;5115077;28;20027;-89
2021/11/08 12:02:26;;;;;;;15.13;4.00;;;19.10;99.90;;;;;;5115386;28;20019;-91
2021/11/08 12:04:55;;;;;;;10.63;4.35;;;18.60;99.90;;;;;;5118573;28;20032;-89
2021/11/08 12:07:25;;;;;;;13.50;3.78;;;18.30;99.90;;;;;;5129505;28;20015;-91
2021/11/08 12:09:57;;;;;;;13.85;3.72;;;17.90;99.90;;;;;;5111944;28;20475;-90
2021/11/08 12:12:30;;;;;;;10.45;3.90;;;17.40;99.90;;;;;;5096082;28;20027;-90
2021/11/08 12:15:08;;;;;;;;;;;16.90;99.90;;;;;;5112203;28;20105;-90
2021/11/08 12:17:40;;;;;;;11.40;3.67;;;16.40;99.90;;;;;;5128293;28;20002;-90
2021/11/08 12:20:17;;;;;;;13.57;3.67;;;15.90;99.90;;;;;;5111286;28;20148;-89
2021/11/08 12:22:51;;;;;;;11.02;3.75;;;15.60;99.90;;;;;;5111015;28;20055;-90
2021/11/08 12:25:32;;;;;;;18.00;4.50;;;15.30;99.90;;;;;;5117867;28;20047;-91
2021/11/08 12:28:19;;;;;;;12.52;3.72;;;14.90;99.90;;;;;;5096851;28;20150;-91
2021/11/08 12:30:54;;;;;;;9.60;3.38;;;14.60;99.90;;;;;;5111577;28;20019;-89
2021/11/08 12:33:33;;;;;;;18.45;4.43;;;14.30;99.90;;;;;;5119977;28;20019;-91
2021/11/08 12:36:15;;;;;;;13.20;3.75;;;14.10;99.90;;;;;;5097308;28;20023;-91
2021/11/08 12:38:53;;;;;;;9.48;3.20;;;13.90;99.90;;;;;;5113954;28;20036;-90
2021/11/08 12:41:33;;;;;;;11.45;3.88;;;13.80;99.90;;;;;;5114772;27;20116;-89
2021/11/08 12:44:10;;;;;;;13.27;4.00;;;13.80;99.90;;;;;;5147660;27;20098;-89
2021/11/08 12:47:01;;;;;;;16.27;3.92;;;13.70;99.90;;;;;;5118411;27;20024;-88
2021/11/08 12:49:40;;;;;;;13.38;4.65;;;13.70;99.90;;;;;;5116431;28;20031;-90
2021/11/08 12:52:14;;;;;;;16.85;5.10;;;13.60;99.90;;;;;;5116595;28;20083;-91
2021/11/08 12:55:13;;;;;;;16.00;4.65;;;13.70;99.90;;;;;;5117131;27;20016;-92
2021/11/08 12:57:52;;;;;;;13.00;3.88;;;13.60;99.90;;;;;;5136340;27;20035;-91
2021/11/08 13:00:27;;;;;;;14.20;4.13;;;13.60;99.90;;;;;;5129541;27;20019;-88
2021/11/08 13:03:10;;;;;;;11.52;4.03;;;13.70;99.90;;;;;;5129748;27;20030;-87
2021/11/08 13:05:54;;;;;;;13.43;3.90;;;13.60;99.90;;;;;;5117811;27;20023;-88
2021/11/08 13:08:30;;;;;;;10.23;3.20;;;13.50;99.90;;;;;;5115675;28;20122;-87
2021/11/08 13:11:14;;;;;;;10.07;3.47;;;13.50;99.90;;;;;;5112519;28;20039;-86
2021/11/08 13:13:58;;;;;;;12.15;3.88;;;13.60;99.90;;;;;;5117941;27;20026;-86
2021/11/08 13:16:43;;;;;;;16.52;4.20;;;13.80;99.90;;;;;;5115510;28;20023;-86
2021/11/08 13:19:15;;;;;;;16.42;3.88;;;14.00;99.90;;;;;;5115159;28;20020;-87
2021/11/08 13:21:42;;;;;;;15.52;4.97;;;13.90;99.90;;;;;;5115446;28;20054;-87
2021/11/08 13:24:16;;;;;;;11.85;3.63;;;13.80;99.90;;;;;;5116190;28;20008;-86
2021/11/08 13:26:48;;;;;;;;;;;13.70;99.90;;;;;;5098937;27;20112;-87
2021/11/08 13:29:19;;;;;;;15.15;3.38;;;13.60;99.90;;;;;;5110687;28;19908;-86
2021/11/08 13:31:52;;;;;;;15.20;3.13;;;13.60;99.90;;;;;;5124580;27;20480;-87
2021/11/08 13:34:22;;;;;;;16.35;3.33;;;13.60;99.90;;;;;;5112413;27;20497;-87
2021/11/08 13:36:49;;;;;;;15.00;3.13;;;13.70;99.90;;;;;;5122855;27;20027;-87
2021/11/08 13:39:16;;;;;;;10.80;2.55;;;13.60;99.90;;;;;;5133700;27;20028;-87
2021/11/08 13:41:42;;;;;;;9.18;3.00;;;13.60;99.90;;;;;;5128891;27;20035;-86
2021/11/08 13:44:11;;;;;;;15.45;3.38;;;13.60;99.90;;;;;;5111722;27;20039;-87
2021/11/08 13:46:46;;;;;;;14.25;3.50;;;13.50;99.90;;;;;;5111940;28;20475;-87
2021/11/08 13:49:16;;;;;;;12.48;3.00;;;13.40;99.90;;;;;;5111360;28;20023;-87
2021/11/08 13:51:51;;;;;;;10.00;2.67;;;13.30;99.90;;;;;;5111357;28;20028;-87
2021/11/08 13:54:25;;;;;;;9.68;2.85;;;13.20;99.90;;;;;;5111798;28;20020;-86
2021/11/08 13:57:04;;;;;;;11.25;2.90;;;13.20;99.90;;;;;;5109562;28;20023;-87
2021/11/08 13:59:37;;;;;;;14.18;3.28;;;13.10;99.90;;;;;;5109060;28;20032;-87
2021/11/08 14:02:16;;;;;;;9.00;3.17;;;13.10;99.90;;;;;;5107732;28;20031;-87
2021/11/08 14:04:50;;;;;;;7.90;2.70;;;13.10;99.90;;;;;;5108505;28;20042;-88
2021/11/08 14:07:28;;;;;;;14.32;3.40;;;13.10;99.90;;;;;;5108641;28;20533;-86
2021/11/08 14:09:58;;;;;;;11.45;3.35;;;13.10;99.90;;;;;;5090867;28;20078;-85
2021/11/08 14:12:30;;;;;;;12.30;3.63;;;13.10;99.90;;;;;;5108333;28;20106;-86
2021/11/08 14:14:58;;;;;;;13.63;3.50;;;13.00;99.90;;;;;;5109185;27;20024;-87
2021/11/08 14:17:33;;;;;;;12.68;3.78;;;12.90;99.90;;;;;;5109463;28;20059;-86
2021/11/08 14:20:11;;;;;;;13.98;4.10;;;12.90;99.90;;;;;;5110133;28;20023;-86
2021/11/08 14:22:40;;;;;;;8.73;3.00;;;12.80;99.90;;;;;;5108569;28;20020;-87
2021/11/08 14:25:28;;;;;;;11.23;3.53;;;12.80;99.90;;;;;;5120631;27;20526;-85
2021/11/08 14:27:54;;;;;;;11.57;3.30;;;12.80;99.90;;;;;;5094878;28;20035;-85
2021/11/08 14:30:23;;;;;;;12.35;3.10;;;12.70;99.90;;;;;;5108931;28;20045;-86
2021/11/08 14:32:52;;;;;;;14.50;3.58;;;12.70;99.90;;;;;;5107631;28;20463;-85
2021/11/08 14:35:30;;;;;;;10.80;2.67;;;12.60;99.90;;;;;;5108308;27;20020;-86
2021/11/08 14:38:14;;;;;;;6.03;1.90;;;12.50;99.90;;;;;;5105942;28;20553;-86
2021/11/08 14:40:45;;;;;;;8.35;2.72;;;12.50;99.90;;;;;;5102247;27;20071;-86
2021/11/08 14:43:23;;;;;;;10.82;2.40;;;12.50;99.90;;;;;;5105839;28;20029;-87
2021/11/08 14:46:02;;;;;;;11.30;2.67;;;12.50;99.90;;;;;;5110492;27;20559;-87
2021/11/08 14:48:31;;;;;;;10.07;2.28;;;12.40;99.90;;;;;;5105724;28;20031;-87
2021/11/08 14:51:24;;;;;;;9.57;2.17;;;12.40;99.90;;;;;;5104134;28;20020;-87
2021/11/08 14:54:00;;;;;;;10.82;3.17;;;12.40;99.90;;;;;;5104534;28;20032;-87
2021/11/08 14:56:52;;;;;;;9.85;2.88;;;12.30;99.90;;;;;;5107513;28;20027;-86
2021/11/08 14:59:35;;;;;;;6.13;2.10;;;12.20;99.90;;;;;;5106833;28;20510;-87
2021/11/08 15:02:09;;;;;;;11.07;2.60;;;12.20;99.90;;;;;;5106714;28;20027;-87
2021/11/08 15:04:58;;;;;;;8.52;2.55;;;12.20;99.90;;;;;;5113692;27;20039;-86